sensor_id;sensor_type;location;lat;lon;timestamp;temperature;humidity
66928;DHT22;59882;45.624;11.698;2023-02-18T00:01:11;8.80;78.10
66928;DHT22;59882;45.624;11.698;2023-02-18T00:03:37;8.80;78.20
66928;DHT22;59882;45.624;11.698;2023-02-18T00:06:13;8.80;77.60
66928;DHT22;59882;45.624;11.698;2023-02-18T00:08:40;8.80;77.90
66928;DHT22;59882;45.624;11.698;2023-02-18T00:11:06;8.80;77.90
66928;DHT22;59882;45.624;11.698;2023-02-18T00:13:32;8.90;77.90
66928;DHT22;59882;45.624;11.698;2023-02-18T00:16:02;8.90;77.90
66928;DHT22;59882;45.624;11.698;2023-02-18T00:18:29;8.80;77.80
66928;DHT22;59882;45.624;11.698;2023-02-18T00:20:54;8.80;77.70
66928;DHT22;59882;45.624;11.698;2023-02-18T00:23:20;8.80;77.50
66928;DHT22;59882;45.624;11.698;2023-02-18T00:25:45;8.80;77.70
66928;DHT22;59882;45.624;11.698;2023-02-18T00:28:11;8.80;77.20
66928;DHT22;59882;45.624;11.698;2023-02-18T00:30:41;8.80;77.20
66928;DHT22;59882;45.624;11.698;2023-02-18T00:33:06;8.80;77.50
66928;DHT22;59882;45.624;11.698;2023-02-18T00:35:32;8.80;77.60
66928;DHT22;59882;45.624;11.698;2023-02-18T00:37:57;8.80;78.00
66928;DHT22;59882;45.624;11.698;2023-02-18T00:40:23;8.80;77.90
66928;DHT22;59882;45.624;11.698;2023-02-18T00:42:49;8.80;78.30
66928;DHT22;59882;45.624;11.698;2023-02-18T00:45:14;8.80;78.00
66928;DHT22;59882;45.624;11.698;2023-02-18T00:47:40;8.80;78.10
66928;DHT22;59882;45.624;11.698;2023-02-18T00:50:07;8.80;78.10
66928;DHT22;59882;45.624;11.698;2023-02-18T00:52:33;8.80;78.00
66928;DHT22;59882;45.624;11.698;2023-02-18T00:54:58;8.80;78.10
66928;DHT22;59882;45.624;11.698;2023-02-18T00:57:24;8.80;78.10
66928;DHT22;59882;45.624;11.698;2023-02-18T00:59:50;8.80;78.00
66928;DHT22;59882;45.624;11.698;2023-02-18T01:02:15;8.80;78.20
66928;DHT22;59882;45.624;11.698;2023-02-18T01:04:41;8.80;78.40
66928;DHT22;59882;45.624;11.698;2023-02-18T01:07:06;8.70;78.40
66928;DHT22;59882;45.624;11.698;2023-02-18T01:09:35;8.70;78.30
66928;DHT22;59882;45.624;11.698;2023-02-18T01:12:01;8.70;78.40
66928;DHT22;59882;45.624;11.698;2023-02-18T01:14:27;8.70;78.70
66928;DHT22;59882;45.624;11.698;2023-02-18T01:16:52;8.70;78.80
66928;DHT22;59882;45.624;11.698;2023-02-18T01:19:18;8.60;78.90
66928;DHT22;59882;45.624;11.698;2023-02-18T01:21:43;8.60;78.40
66928;DHT22;59882;45.624;11.698;2023-02-18T01:24:09;8.60;78.30
66928;DHT22;59882;45.624;11.698;2023-02-18T01:26:35;8.60;78.20
66928;DHT22;59882;45.624;11.698;2023-02-18T01:29:00;8.60;78.60
66928;DHT22;59882;45.624;11.698;2023-02-18T01:31:26;8.60;78.60
66928;DHT22;59882;45.624;11.698;2023-02-18T01:33:52;8.60;78.60
66928;DHT22;59882;45.624;11.698;2023-02-18T01:36:17;8.60;79.00
66928;DHT22;59882;45.624;11.698;2023-02-18T01:38:43;8.60;79.00
66928;DHT22;59882;45.624;11.698;2023-02-18T01:41:09;8.60;78.80
66928;DHT22;59882;45.624;11.698;2023-02-18T01:43:35;8.60;79.00
66928;DHT22;59882;45.624;11.698;2023-02-18T01:46:13;8.50;79.00
66928;DHT22;59882;45.624;11.698;2023-02-18T01:51:21;8.60;79.10
66928;DHT22;59882;45.624;11.698;2023-02-18T01:54:07;8.50;79.00
66928;DHT22;59882;45.624;11.698;2023-02-18T01:56:37;8.50;79.00
66928;DHT22;59882;45.624;11.698;2023-02-18T01:59:14;8.50;79.00
66928;DHT22;59882;45.624;11.698;2023-02-18T02:01:42;8.50;79.20
66928;DHT22;59882;45.624;11.698;2023-02-18T02:04:08;8.50;79.30
66928;DHT22;59882;45.624;11.698;2023-02-18T02:06:34;8.50;79.40
66928;DHT22;59882;45.624;11.698;2023-02-18T02:09:02;8.50;79.10
66928;DHT22;59882;45.624;11.698;2023-02-18T02:11:54;8.50;79.30
66928;DHT22;59882;45.624;11.698;2023-02-18T02:36:13;8.40;79.60
66928;DHT22;59882;45.624;11.698;2023-02-18T02:39:14;8.40;79.60
66928;DHT22;59882;45.624;11.698;2023-02-18T02:41:53;8.40;79.70
66928;DHT22;59882;45.624;11.698;2023-02-18T02:47:48;8.40;79.40
66928;DHT22;59882;45.624;11.698;2023-02-18T02:52:51;8.40;79.50
66928;DHT22;59882;45.624;11.698;2023-02-18T02:55:19;8.40;79.50
66928;DHT22;59882;45.624;11.698;2023-02-18T03:00:13;8.40;79.60
66928;DHT22;59882;45.624;11.698;2023-02-18T03:11:17;8.40;79.60
66928;DHT22;59882;45.624;11.698;2023-02-18T03:14:11;8.30;79.80
66928;DHT22;59882;45.624;11.698;2023-02-18T03:17:02;8.30;79.80
66928;DHT22;59882;45.624;11.698;2023-02-18T03:19:44;8.40;80.00
66928;DHT22;59882;45.624;11.698;2023-02-18T03:22:17;8.30;79.80
66928;DHT22;59882;45.624;11.698;2023-02-18T03:24:46;8.30;80.10
66928;DHT22;59882;45.624;11.698;2023-02-18T03:27:26;8.30;80.20
66928;DHT22;59882;45.624;11.698;2023-02-18T03:30:12;8.30;79.80
66928;DHT22;59882;45.624;11.698;2023-02-18T03:32:39;8.30;80.10
66928;DHT22;59882;45.624;11.698;2023-02-18T03:35:12;8.30;80.20
66928;DHT22;59882;45.624;11.698;2023-02-18T03:37:42;8.30;79.90
66928;DHT22;59882;45.624;11.698;2023-02-18T03:40:10;8.30;79.80
66928;DHT22;59882;45.624;11.698;2023-02-18T03:42:36;8.30;79.80
66928;DHT22;59882;45.624;11.698;2023-02-18T03:45:01;8.30;80.10
66928;DHT22;59882;45.624;11.698;2023-02-18T03:47:27;8.30;80.30
66928;DHT22;59882;45.624;11.698;2023-02-18T03:49:53;8.30;80.30
66928;DHT22;59882;45.624;11.698;2023-02-18T03:52:19;8.30;80.30
66928;DHT22;59882;45.624;11.698;2023-02-18T03:54:44;8.30;80.30
66928;DHT22;59882;45.624;11.698;2023-02-18T03:57:10;8.20;80.40
66928;DHT22;59882;45.624;11.698;2023-02-18T03:59:35;8.30;80.50
66928;DHT22;59882;45.624;11.698;2023-02-18T04:02:01;8.30;80.50
66928;DHT22;59882;45.624;11.698;2023-02-18T04:04:27;8.30;80.30
66928;DHT22;59882;45.624;11.698;2023-02-18T04:06:53;8.20;80.20
66928;DHT22;59882;45.624;11.698;2023-02-18T04:09:19;8.30;80.40
66928;DHT22;59882;45.624;11.698;2023-02-18T04:11:44;8.30;80.30
66928;DHT22;59882;45.624;11.698;2023-02-18T04:14:12;8.20;80.30
66928;DHT22;59882;45.624;11.698;2023-02-18T04:16:38;8.20;80.50
66928;DHT22;59882;45.624;11.698;2023-02-18T04:19:04;8.30;80.50
66928;DHT22;59882;45.624;11.698;2023-02-18T04:21:30;8.20;80.40
66928;DHT22;59882;45.624;11.698;2023-02-18T04:23:55;8.30;80.50
66928;DHT22;59882;45.624;11.698;2023-02-18T04:26:21;8.20;80.50
66928;DHT22;59882;45.624;11.698;2023-02-18T04:28:47;8.20;80.50
66928;DHT22;59882;45.624;11.698;2023-02-18T04:31:12;8.20;80.60
66928;DHT22;59882;45.624;11.698;2023-02-18T04:33:39;8.30;80.60
66928;DHT22;59882;45.624;11.698;2023-02-18T04:36:06;8.30;80.70
66928;DHT22;59882;45.624;11.698;2023-02-18T04:38:31;8.20;80.70
66928;DHT22;59882;45.624;11.698;2023-02-18T04:40:57;8.20;80.50
66928;DHT22;59882;45.624;11.698;2023-02-18T04:43:23;8.20;80.50
66928;DHT22;59882;45.624;11.698;2023-02-18T04:45:49;8.20;80.50
66928;DHT22;59882;45.624;11.698;2023-02-18T04:48:14;8.30;80.60
66928;DHT22;59882;45.624;11.698;2023-02-18T04:50:40;8.30;80.70
66928;DHT22;59882;45.624;11.698;2023-02-18T04:53:06;8.30;80.70
66928;DHT22;59882;45.624;11.698;2023-02-18T04:55:31;8.30;80.70
66928;DHT22;59882;45.624;11.698;2023-02-18T04:57:57;8.30;80.30
66928;DHT22;59882;45.624;11.698;2023-02-18T05:00:23;8.30;80.50
66928;DHT22;59882;45.624;11.698;2023-02-18T05:02:48;8.30;80.50
66928;DHT22;59882;45.624;11.698;2023-02-18T05:05:14;8.30;80.40
66928;DHT22;59882;45.624;11.698;2023-02-18T05:07:40;8.30;80.40
66928;DHT22;59882;45.624;11.698;2023-02-18T05:10:08;8.30;80.60
66928;DHT22;59882;45.624;11.698;2023-02-18T05:12:35;8.30;80.40
66928;DHT22;59882;45.624;11.698;2023-02-18T05:15:00;8.30;80.50
66928;DHT22;59882;45.624;11.698;2023-02-18T05:17:26;8.30;80.50
66928;DHT22;59882;45.624;11.698;2023-02-18T05:19:51;8.30;80.60
66928;DHT22;59882;45.624;11.698;2023-02-18T05:22:17;8.30;80.60
66928;DHT22;59882;45.624;11.698;2023-02-18T05:24:42;8.20;80.40
66928;DHT22;59882;45.624;11.698;2023-02-18T05:27:08;8.30;80.50
66928;DHT22;59882;45.624;11.698;2023-02-18T05:29:34;8.20;80.60
66928;DHT22;59882;45.624;11.698;2023-02-18T05:31:59;8.30;80.40
66928;DHT22;59882;45.624;11.698;2023-02-18T05:34:25;8.30;80.70
66928;DHT22;59882;45.624;11.698;2023-02-18T05:36:50;8.30;80.60
66928;DHT22;59882;45.624;11.698;2023-02-18T05:39:16;8.30;80.50
66928;DHT22;59882;45.624;11.698;2023-02-18T05:41:42;8.30;80.40
66928;DHT22;59882;45.624;11.698;2023-02-18T05:44:07;8.20;80.30
66928;DHT22;59882;45.624;11.698;2023-02-18T05:46:51;8.30;80.50
66928;DHT22;59882;45.624;11.698;2023-02-18T05:49:17;8.20;80.40
66928;DHT22;59882;45.624;11.698;2023-02-18T05:51:42;8.20;80.40
66928;DHT22;59882;45.624;11.698;2023-02-18T05:54:08;8.20;80.40
66928;DHT22;59882;45.624;11.698;2023-02-18T05:56:34;8.20;80.40
66928;DHT22;59882;45.624;11.698;2023-02-18T05:58:59;8.20;80.40
66928;DHT22;59882;45.624;11.698;2023-02-18T06:01:25;8.20;80.50
66928;DHT22;59882;45.624;11.698;2023-02-18T06:03:50;8.20;80.70
66928;DHT22;59882;45.624;11.698;2023-02-18T06:06:16;8.20;80.30
66928;DHT22;59882;45.624;11.698;2023-02-18T06:08:42;8.20;80.20
66928;DHT22;59882;45.624;11.698;2023-02-18T06:11:07;8.20;80.50
66928;DHT22;59882;45.624;11.698;2023-02-18T06:13:33;8.20;80.70
66928;DHT22;59882;45.624;11.698;2023-02-18T06:15:59;8.20;80.70
66928;DHT22;59882;45.624;11.698;2023-02-18T06:18:24;8.20;80.50
66928;DHT22;59882;45.624;11.698;2023-02-18T06:20:50;8.30;80.50
66928;DHT22;59882;45.624;11.698;2023-02-18T06:23:15;8.20;80.60
66928;DHT22;59882;45.624;11.698;2023-02-18T06:25:41;8.30;80.30
66928;DHT22;59882;45.624;11.698;2023-02-18T06:28:07;8.30;80.60
66928;DHT22;59882;45.624;11.698;2023-02-18T06:30:33;8.30;80.80
66928;DHT22;59882;45.624;11.698;2023-02-18T06:32:59;8.30;80.90
66928;DHT22;59882;45.624;11.698;2023-02-18T06:35:24;8.30;80.80
66928;DHT22;59882;45.624;11.698;2023-02-18T06:37:50;8.30;80.80
66928;DHT22;59882;45.624;11.698;2023-02-18T06:40:16;8.30;80.80
66928;DHT22;59882;45.624;11.698;2023-02-18T06:42:43;8.30;80.80
66928;DHT22;59882;45.624;11.698;2023-02-18T06:45:08;8.30;80.90
66928;DHT22;59882;45.624;11.698;2023-02-18T06:47:34;8.30;80.90
66928;DHT22;59882;45.624;11.698;2023-02-18T06:50:00;8.30;81.00
66928;DHT22;59882;45.624;11.698;2023-02-18T06:52:25;8.30;81.10
66928;DHT22;59882;45.624;11.698;2023-02-18T06:54:51;8.30;80.80
66928;DHT22;59882;45.624;11.698;2023-02-18T06:57:17;8.30;81.00
66928;DHT22;59882;45.624;11.698;2023-02-18T06:59:42;8.30;81.00
66928;DHT22;59882;45.624;11.698;2023-02-18T07:02:11;8.30;80.80
66928;DHT22;59882;45.624;11.698;2023-02-18T07:04:37;8.30;80.90
66928;DHT22;59882;45.624;11.698;2023-02-18T07:07:02;8.30;81.10
66928;DHT22;59882;45.624;11.698;2023-02-18T07:09:28;8.30;81.20
66928;DHT22;59882;45.624;11.698;2023-02-18T07:11:53;8.30;81.20
66928;DHT22;59882;45.624;11.698;2023-02-18T07:14:19;8.30;81.20
66928;DHT22;59882;45.624;11.698;2023-02-18T07:16:45;8.30;81.00
66928;DHT22;59882;45.624;11.698;2023-02-18T07:19:11;8.30;81.20
66928;DHT22;59882;45.624;11.698;2023-02-18T07:21:36;8.30;81.30
66928;DHT22;59882;45.624;11.698;2023-02-18T07:24:02;8.30;81.10
66928;DHT22;59882;45.624;11.698;2023-02-18T07:26:28;8.30;80.90
66928;DHT22;59882;45.624;11.698;2023-02-18T07:28:53;8.30;81.00
66928;DHT22;59882;45.624;11.698;2023-02-18T07:31:19;8.30;80.90
66928;DHT22;59882;45.624;11.698;2023-02-18T07:33:44;8.30;80.90
66928;DHT22;59882;45.624;11.698;2023-02-18T07:36:10;8.30;81.10
66928;DHT22;59882;45.624;11.698;2023-02-18T07:38:35;8.30;81.00
66928;DHT22;59882;45.624;11.698;2023-02-18T07:41:01;8.30;81.30
66928;DHT22;59882;45.624;11.698;2023-02-18T07:43:27;8.30;81.10
66928;DHT22;59882;45.624;11.698;2023-02-18T07:45:52;8.30;81.10
66928;DHT22;59882;45.624;11.698;2023-02-18T07:48:18;8.30;81.30
66928;DHT22;59882;45.624;11.698;2023-02-18T07:50:44;8.30;81.40
66928;DHT22;59882;45.624;11.698;2023-02-18T07:53:12;8.30;81.40
66928;DHT22;59882;45.624;11.698;2023-02-18T07:55:38;8.40;81.40
66928;DHT22;59882;45.624;11.698;2023-02-18T07:58:23;8.30;81.40
66928;DHT22;59882;45.624;11.698;2023-02-18T08:00:50;8.40;81.40
66928;DHT22;59882;45.624;11.698;2023-02-18T08:03:16;8.40;81.30
66928;DHT22;59882;45.624;11.698;2023-02-18T08:05:43;8.40;81.20
66928;DHT22;59882;45.624;11.698;2023-02-18T08:08:14;8.40;81.30
66928;DHT22;59882;45.624;11.698;2023-02-18T08:10:40;8.40;81.30
66928;DHT22;59882;45.624;11.698;2023-02-18T08:13:06;8.40;81.00
66928;DHT22;59882;45.624;11.698;2023-02-18T08:15:32;8.40;81.00
66928;DHT22;59882;45.624;11.698;2023-02-18T08:17:57;8.50;81.00
66928;DHT22;59882;45.624;11.698;2023-02-18T08:20:23;8.50;81.20
66928;DHT22;59882;45.624;11.698;2023-02-18T08:22:48;8.50;81.10
66928;DHT22;59882;45.624;11.698;2023-02-18T08:25:14;8.50;81.30
66928;DHT22;59882;45.624;11.698;2023-02-18T08:27:40;8.50;81.20
66928;DHT22;59882;45.624;11.698;2023-02-18T08:30:06;8.60;81.00
66928;DHT22;59882;45.624;11.698;2023-02-18T08:32:32;8.60;80.90
66928;DHT22;59882;45.624;11.698;2023-02-18T08:34:57;8.60;80.70
66928;DHT22;59882;45.624;11.698;2023-02-18T08:37:23;8.70;80.90
66928;DHT22;59882;45.624;11.698;2023-02-18T08:39:50;8.70;81.00
66928;DHT22;59882;45.624;11.698;2023-02-18T08:42:15;8.70;80.90
66928;DHT22;59882;45.624;11.698;2023-02-18T08:44:41;8.80;80.60
66928;DHT22;59882;45.624;11.698;2023-02-18T08:47:07;8.80;80.50
66928;DHT22;59882;45.624;11.698;2023-02-18T08:49:32;8.80;80.40
66928;DHT22;59882;45.624;11.698;2023-02-18T08:51:58;8.80;80.40
66928;DHT22;59882;45.624;11.698;2023-02-18T08:54:23;8.90;80.40
66928;DHT22;59882;45.624;11.698;2023-02-18T08:56:52;8.90;80.00
66928;DHT22;59882;45.624;11.698;2023-02-18T08:59:18;8.90;79.60
66928;DHT22;59882;45.624;11.698;2023-02-18T09:01:43;8.90;79.70
66928;DHT22;59882;45.624;11.698;2023-02-18T09:04:09;8.90;79.70
66928;DHT22;59882;45.624;11.698;2023-02-18T09:06:38;9.00;79.50
66928;DHT22;59882;45.624;11.698;2023-02-18T09:09:04;9.00;79.30
66928;DHT22;59882;45.624;11.698;2023-02-18T09:11:30;9.00;79.30
66928;DHT22;59882;45.624;11.698;2023-02-18T09:13:55;9.10;79.20
66928;DHT22;59882;45.624;11.698;2023-02-18T09:16:21;9.10;79.20
66928;DHT22;59882;45.624;11.698;2023-02-18T09:18:48;9.20;78.90
66928;DHT22;59882;45.624;11.698;2023-02-18T09:21:15;9.20;78.60
66928;DHT22;59882;45.624;11.698;2023-02-18T09:23:41;9.20;78.40
66928;DHT22;59882;45.624;11.698;2023-02-18T09:26:09;9.20;78.40
66928;DHT22;59882;45.624;11.698;2023-02-18T09:28:37;9.30;78.60
66928;DHT22;59882;45.624;11.698;2023-02-18T09:31:08;9.30;78.50
66928;DHT22;59882;45.624;11.698;2023-02-18T09:33:35;9.30;78.30
66928;DHT22;59882;45.624;11.698;2023-02-18T09:36:02;9.30;78.20
66928;DHT22;59882;45.624;11.698;2023-02-18T09:38:27;9.30;78.10
66928;DHT22;59882;45.624;11.698;2023-02-18T09:40:53;9.40;78.00
66928;DHT22;59882;45.624;11.698;2023-02-18T09:43:29;9.40;78.00
66928;DHT22;59882;45.624;11.698;2023-02-18T09:45:57;9.40;78.10
66928;DHT22;59882;45.624;11.698;2023-02-18T09:48:30;9.50;78.10
66928;DHT22;59882;45.624;11.698;2023-02-18T09:50:56;9.50;78.00
66928;DHT22;59882;45.624;11.698;2023-02-18T09:53:23;9.50;78.00
66928;DHT22;59882;45.624;11.698;2023-02-18T09:55:50;9.60;78.00
66928;DHT22;59882;45.624;11.698;2023-02-18T09:58:23;9.70;78.00
66928;DHT22;59882;45.624;11.698;2023-02-18T10:03:29;9.80;77.90
66928;DHT22;59882;45.624;11.698;2023-02-18T10:06:08;9.80;78.00
66928;DHT22;59882;45.624;11.698;2023-02-18T10:08:45;9.80;77.50
66928;DHT22;59882;45.624;11.698;2023-02-18T10:11:14;9.80;77.30
66928;DHT22;59882;45.624;11.698;2023-02-18T10:13:41;9.80;77.10
66928;DHT22;59882;45.624;11.698;2023-02-18T10:16:08;9.80;77.20
66928;DHT22;59882;45.624;11.698;2023-02-18T10:18:43;9.80;77.30
66928;DHT22;59882;45.624;11.698;2023-02-18T10:21:13;9.80;77.30
66928;DHT22;59882;45.624;11.698;2023-02-18T10:23:42;9.90;77.60
66928;DHT22;59882;45.624;11.698;2023-02-18T10:26:16;9.90;77.50
66928;DHT22;59882;45.624;11.698;2023-02-18T10:28:43;9.90;77.40
66928;DHT22;59882;45.624;11.698;2023-02-18T10:31:10;9.90;77.20
66928;DHT22;59882;45.624;11.698;2023-02-18T10:33:45;9.90;77.20
66928;DHT22;59882;45.624;11.698;2023-02-18T10:36:25;9.90;77.30
66928;DHT22;59882;45.624;11.698;2023-02-18T10:50:12;9.90;76.40
66928;DHT22;59882;45.624;11.698;2023-02-18T10:52:46;9.90;76.50
66928;DHT22;59882;45.624;11.698;2023-02-18T10:55:16;9.90;76.40
66928;DHT22;59882;45.624;11.698;2023-02-18T10:57:53;9.90;76.40
66928;DHT22;59882;45.624;11.698;2023-02-18T11:00:24;10.00;76.50
66928;DHT22;59882;45.624;11.698;2023-02-18T11:03:21;10.00;76.50
66928;DHT22;59882;45.624;11.698;2023-02-18T11:05:50;10.00;76.60
66928;DHT22;59882;45.624;11.698;2023-02-18T11:08:23;10.00;76.70
66928;DHT22;59882;45.624;11.698;2023-02-18T11:10:49;10.10;77.00
66928;DHT22;59882;45.624;11.698;2023-02-18T11:13:22;10.10;77.00
66928;DHT22;59882;45.624;11.698;2023-02-18T11:16:09;10.10;76.80
66928;DHT22;59882;45.624;11.698;2023-02-18T11:18:42;10.20;76.40
66928;DHT22;59882;45.624;11.698;2023-02-18T11:23:53;10.20;76.10
66928;DHT22;59882;45.624;11.698;2023-02-18T11:26:27;10.30;76.20
66928;DHT22;59882;45.624;11.698;2023-02-18T11:29:21;10.30;76.10
66928;DHT22;59882;45.624;11.698;2023-02-18T11:31:54;10.30;76.00
66928;DHT22;59882;45.624;11.698;2023-02-18T11:34:23;10.30;76.10
66928;DHT22;59882;45.624;11.698;2023-02-18T11:36:51;10.30;75.80
66928;DHT22;59882;45.624;11.698;2023-02-18T11:39:18;10.40;75.80
66928;DHT22;59882;45.624;11.698;2023-02-18T11:41:56;10.40;75.70
66928;DHT22;59882;45.624;11.698;2023-02-18T11:44:36;10.40;75.90
66928;DHT22;59882;45.624;11.698;2023-02-18T11:47:03;10.40;75.90
66928;DHT22;59882;45.624;11.698;2023-02-18T11:49:31;10.40;75.90
66928;DHT22;59882;45.624;11.698;2023-02-18T11:52:18;10.40;75.80
66928;DHT22;59882;45.624;11.698;2023-02-18T11:55:23;10.40;75.30
66928;DHT22;59882;45.624;11.698;2023-02-18T11:57:58;10.40;75.40
66928;DHT22;59882;45.624;11.698;2023-02-18T12:00:45;10.40;75.50
66928;DHT22;59882;45.624;11.698;2023-02-18T12:05:49;10.50;75.30
66928;DHT22;59882;45.624;11.698;2023-02-18T12:08:21;10.50;75.30
66928;DHT22;59882;45.624;11.698;2023-02-18T12:10:54;10.40;75.30
66928;DHT22;59882;45.624;11.698;2023-02-18T12:13:37;10.50;75.30
66928;DHT22;59882;45.624;11.698;2023-02-18T12:22:00;10.50;75.10
66928;DHT22;59882;45.624;11.698;2023-02-18T12:27:24;10.60;75.10
66928;DHT22;59882;45.624;11.698;2023-02-18T12:33:13;10.60;74.90
66928;DHT22;59882;45.624;11.698;2023-02-18T12:43:53;10.60;74.70
66928;DHT22;59882;45.624;11.698;2023-02-18T12:52:42;10.70;74.70
66928;DHT22;59882;45.624;11.698;2023-02-18T13:06:07;10.60;75.00
66928;DHT22;59882;45.624;11.698;2023-02-18T13:08:50;10.60;75.00
66928;DHT22;59882;45.624;11.698;2023-02-18T13:14:02;10.60;74.90
66928;DHT22;59882;45.624;11.698;2023-02-18T13:16:30;10.60;75.00
66928;DHT22;59882;45.624;11.698;2023-02-18T13:21:41;10.60;75.00
66928;DHT22;59882;45.624;11.698;2023-02-18T13:24:16;10.60;74.90
66928;DHT22;59882;45.624;11.698;2023-02-18T13:26:45;10.50;74.90
66928;DHT22;59882;45.624;11.698;2023-02-18T13:35:45;10.50;75.00
66928;DHT22;59882;45.624;11.698;2023-02-18T13:41:06;10.50;75.10
66928;DHT22;59882;45.624;11.698;2023-02-18T13:43:33;10.50;75.20
66928;DHT22;59882;45.624;11.698;2023-02-18T13:46:22;10.50;75.10
66928;DHT22;59882;45.624;11.698;2023-02-18T13:49:03;10.60;75.00
66928;DHT22;59882;45.624;11.698;2023-02-18T13:51:31;10.60;74.90
66928;DHT22;59882;45.624;11.698;2023-02-18T13:56:50;10.50;74.90
66928;DHT22;59882;45.624;11.698;2023-02-18T13:59:25;10.60;74.90
66928;DHT22;59882;45.624;11.698;2023-02-18T14:01:53;10.60;74.90
66928;DHT22;59882;45.624;11.698;2023-02-18T14:09:42;10.60;75.00
66928;DHT22;59882;45.624;11.698;2023-02-18T14:14:42;10.60;75.10
66928;DHT22;59882;45.624;11.698;2023-02-18T14:19:58;10.60;74.90
66928;DHT22;59882;45.624;11.698;2023-02-18T14:22:48;10.60;74.80
66928;DHT22;59882;45.624;11.698;2023-02-18T14:27:50;10.60;74.80
66928;DHT22;59882;45.624;11.698;2023-02-18T14:30:38;10.60;75.10
66928;DHT22;59882;45.624;11.698;2023-02-18T14:33:05;10.60;75.00
66928;DHT22;59882;45.624;11.698;2023-02-18T14:46:11;10.50;74.90
66928;DHT22;59882;45.624;11.698;2023-02-18T14:51:41;10.50;74.80
66928;DHT22;59882;45.624;11.698;2023-02-18T14:54:12;10.50;74.80
66928;DHT22;59882;45.624;11.698;2023-02-18T14:56:54;10.50;74.80
66928;DHT22;59882;45.624;11.698;2023-02-18T14:59:21;10.50;74.80
66928;DHT22;59882;45.624;11.698;2023-02-18T15:01:48;10.50;75.00
66928;DHT22;59882;45.624;11.698;2023-02-18T15:04:14;10.50;75.10
66928;DHT22;59882;45.624;11.698;2023-02-18T15:06:40;10.50;75.30
66928;DHT22;59882;45.624;11.698;2023-02-18T15:09:20;10.50;75.20
66928;DHT22;59882;45.624;11.698;2023-02-18T15:14:26;10.40;75.70
66928;DHT22;59882;45.624;11.698;2023-02-18T15:16:54;10.40;75.90
66928;DHT22;59882;45.624;11.698;2023-02-18T15:19:23;10.40;75.90
66928;DHT22;59882;45.624;11.698;2023-02-18T15:21:50;10.40;75.80
66928;DHT22;59882;45.624;11.698;2023-02-18T15:24:37;10.40;75.80
66928;DHT22;59882;45.624;11.698;2023-02-18T15:27:21;10.40;75.90
66928;DHT22;59882;45.624;11.698;2023-02-18T15:30:16;10.40;75.80
66928;DHT22;59882;45.624;11.698;2023-02-18T15:32:37;10.30;75.90
66928;DHT22;59882;45.624;11.698;2023-02-18T15:35:14;10.30;76.00
66928;DHT22;59882;45.624;11.698;2023-02-18T15:37:44;10.30;76.00
66928;DHT22;59882;45.624;11.698;2023-02-18T15:40:16;10.30;76.20
66928;DHT22;59882;45.624;11.698;2023-02-18T15:42:46;10.30;76.20
66928;DHT22;59882;45.624;11.698;2023-02-18T15:45:38;10.30;76.30
66928;DHT22;59882;45.624;11.698;2023-02-18T15:48:05;10.20;76.30
66928;DHT22;59882;45.624;11.698;2023-02-18T15:50:37;10.20;76.30
66928;DHT22;59882;45.624;11.698;2023-02-18T15:53:14;10.20;76.60
66928;DHT22;59882;45.624;11.698;2023-02-18T15:55:42;10.20;76.50
66928;DHT22;59882;45.624;11.698;2023-02-18T15:58:16;10.20;76.50
66928;DHT22;59882;45.624;11.698;2023-02-18T16:00:50;10.20;76.80
66928;DHT22;59882;45.624;11.698;2023-02-18T16:03:25;10.20;76.70
66928;DHT22;59882;45.624;11.698;2023-02-18T16:08:33;10.10;76.80
66928;DHT22;59882;45.624;11.698;2023-02-18T16:11:02;10.10;77.00
66928;DHT22;59882;45.624;11.698;2023-02-18T16:13:30;10.10;76.80
66928;DHT22;59882;45.624;11.698;2023-02-18T16:15:56;10.10;77.00
66928;DHT22;59882;45.624;11.698;2023-02-18T16:21:02;10.10;77.00
66928;DHT22;59882;45.624;11.698;2023-02-18T16:23:55;10.00;77.00
66928;DHT22;59882;45.624;11.698;2023-02-18T16:26:31;10.10;76.90
66928;DHT22;59882;45.624;11.698;2023-02-18T16:29:09;10.00;77.10
66928;DHT22;59882;45.624;11.698;2023-02-18T16:31:36;10.00;77.10
66928;DHT22;59882;45.624;11.698;2023-02-18T16:34:01;10.00;77.10
66928;DHT22;59882;45.624;11.698;2023-02-18T16:36:27;10.00;77.10
66928;DHT22;59882;45.624;11.698;2023-02-18T16:38:52;10.00;77.20
66928;DHT22;59882;45.624;11.698;2023-02-18T16:41:18;10.00;77.20
66928;DHT22;59882;45.624;11.698;2023-02-18T16:43:44;10.00;77.10
66928;DHT22;59882;45.624;11.698;2023-02-18T16:46:15;10.00;77.10
66928;DHT22;59882;45.624;11.698;2023-02-18T16:48:48;10.00;77.10
66928;DHT22;59882;45.624;11.698;2023-02-18T16:51:21;10.00;77.00
66928;DHT22;59882;45.624;11.698;2023-02-18T16:53:47;10.00;77.00
66928;DHT22;59882;45.624;11.698;2023-02-18T16:56:18;10.00;77.00
66928;DHT22;59882;45.624;11.698;2023-02-18T16:58:44;10.00;77.10
66928;DHT22;59882;45.624;11.698;2023-02-18T17:04:00;9.90;77.10
66928;DHT22;59882;45.624;11.698;2023-02-18T17:06:27;10.00;77.20
66928;DHT22;59882;45.624;11.698;2023-02-18T17:08:53;10.00;77.10
66928;DHT22;59882;45.624;11.698;2023-02-18T17:11:22;9.90;77.00
66928;DHT22;59882;45.624;11.698;2023-02-18T17:13:50;10.00;77.00
66928;DHT22;59882;45.624;11.698;2023-02-18T17:16:16;9.90;77.20
66928;DHT22;59882;45.624;11.698;2023-02-18T17:18:42;9.90;77.00
66928;DHT22;59882;45.624;11.698;2023-02-18T17:21:11;9.90;77.10
66928;DHT22;59882;45.624;11.698;2023-02-18T17:23:37;9.90;77.20
66928;DHT22;59882;45.624;11.698;2023-02-18T17:26:08;9.90;77.10
66928;DHT22;59882;45.624;11.698;2023-02-18T17:28:34;9.90;77.00
66928;DHT22;59882;45.624;11.698;2023-02-18T17:31:00;9.90;77.40
66928;DHT22;59882;45.624;11.698;2023-02-18T17:33:25;9.90;77.40
66928;DHT22;59882;45.624;11.698;2023-02-18T17:35:51;9.90;77.60
66928;DHT22;59882;45.624;11.698;2023-02-18T17:38:17;9.90;77.50
66928;DHT22;59882;45.624;11.698;2023-02-18T17:40:43;9.90;77.40
66928;DHT22;59882;45.624;11.698;2023-02-18T17:43:11;9.90;77.40
66928;DHT22;59882;45.624;11.698;2023-02-18T17:45:58;9.90;77.50
66928;DHT22;59882;45.624;11.698;2023-02-18T17:48:24;9.80;77.50
66928;DHT22;59882;45.624;11.698;2023-02-18T17:50:51;9.80;77.50
66928;DHT22;59882;45.624;11.698;2023-02-18T17:53:17;9.80;77.60
66928;DHT22;59882;45.624;11.698;2023-02-18T17:55:44;9.80;77.70
66928;DHT22;59882;45.624;11.698;2023-02-18T17:58:11;9.80;77.70
66928;DHT22;59882;45.624;11.698;2023-02-18T18:00:40;9.80;77.70
66928;DHT22;59882;45.624;11.698;2023-02-18T18:03:06;9.80;77.80
66928;DHT22;59882;45.624;11.698;2023-02-18T18:05:36;9.80;77.60
66928;DHT22;59882;45.624;11.698;2023-02-18T18:08:03;9.80;77.60
66928;DHT22;59882;45.624;11.698;2023-02-18T18:10:32;9.80;77.60
66928;DHT22;59882;45.624;11.698;2023-02-18T18:13:00;9.80;77.70